sensor_id;sensor_type;location;lat;lon;timestamp;P1;durP1;ratioP1;P2;durP2;ratioP2
84589;SDS011;75075;48.816;8.740;2024-01-11T00:02:44;12.75;;;8.25;;
84589;SDS011;75075;48.816;8.740;2024-01-11T00:07:44;12.90;;;8.23;;
84589;SDS011;75075;48.816;8.740;2024-01-11T00:12:45;13.55;;;7.80;;
84589;SDS011;75075;48.816;8.740;2024-01-11T00:17:45;12.48;;;8.48;;
84589;SDS011;75075;48.816;8.740;2024-01-11T00:22:45;11.63;;;7.55;;
84589;SDS011;75075;48.816;8.740;2024-01-11T00:27:46;13.85;;;7.97;;
84589;SDS011;75075;48.816;8.740;2024-01-11T00:32:46;12.98;;;7.88;;
84589;SDS011;75075;48.816;8.740;2024-01-11T00:37:47;11.80;;;7.65;;
84589;SDS011;75075;48.816;8.740;2024-01-11T00:42:47;12.45;;;8.02;;
84589;SDS011;75075;48.816;8.740;2024-01-11T00:47:47;13.73;;;7.65;;
84589;SDS011;75075;48.816;8.740;2024-01-11T00:52:47;10.88;;;7.20;;
84589;SDS011;75075;48.816;8.740;2024-01-11T00:57:48;12.07;;;7.70;;
84589;SDS011;75075;48.816;8.740;2024-01-11T01:02:48;13.23;;;7.97;;
84589;SDS011;75075;48.816;8.740;2024-01-11T01:07:48;12.43;;;8.13;;
84589;SDS011;75075;48.816;8.740;2024-01-11T01:12:49;11.83;;;7.83;;
84589;SDS011;75075;48.816;8.740;2024-01-11T01:17:49;10.95;;;7.28;;
84589;SDS011;75075;48.816;8.740;2024-01-11T01:22:49;11.88;;;7.43;;
84589;SDS011;75075;48.816;8.740;2024-01-11T01:27:49;11.67;;;7.80;;
84589;SDS011;75075;48.816;8.740;2024-01-11T01:32:50;11.82;;;7.57;;
84589;SDS011;75075;48.816;8.740;2024-01-11T01:37:50;11.23;;;7.15;;
84589;SDS011;75075;48.816;8.740;2024-01-11T01:42:50;12.35;;;7.40;;
84589;SDS011;75075;48.816;8.740;2024-01-11T01:47:58;11.27;;;7.50;;
84589;SDS011;75075;48.816;8.740;2024-01-11T01:52:58;11.40;;;6.93;;
84589;SDS011;75075;48.816;8.740;2024-01-11T01:57:59;11.93;;;7.28;;
84589;SDS011;75075;48.816;8.740;2024-01-11T02:03:00;13.25;;;7.85;;
84589;SDS011;75075;48.816;8.740;2024-01-11T02:08:01;12.13;;;7.32;;
84589;SDS011;75075;48.816;8.740;2024-01-11T02:13:08;12.00;;;7.50;;
84589;SDS011;75075;48.816;8.740;2024-01-11T02:18:08;11.37;;;6.90;;
84589;SDS011;75075;48.816;8.740;2024-01-11T02:23:11;12.30;;;7.65;;
84589;SDS011;75075;48.816;8.740;2024-01-11T02:28:14;11.23;;;7.38;;
84589;SDS011;75075;48.816;8.740;2024-01-11T02:33:14;11.95;;;7.35;;
84589;SDS011;75075;48.816;8.740;2024-01-11T02:38:16;12.10;;;7.72;;
84589;SDS011;75075;48.816;8.740;2024-01-11T02:43:17;11.93;;;7.72;;
84589;SDS011;75075;48.816;8.740;2024-01-11T02:48:17;13.20;;;7.93;;
84589;SDS011;75075;48.816;8.740;2024-01-11T02:53:17;12.38;;;7.90;;
84589;SDS011;75075;48.816;8.740;2024-01-11T02:58:17;13.05;;;7.72;;
84589;SDS011;75075;48.816;8.740;2024-01-11T03:03:18;12.00;;;7.80;;
84589;SDS011;75075;48.816;8.740;2024-01-11T03:08:18;13.38;;;8.07;;
84589;SDS011;75075;48.816;8.740;2024-01-11T03:13:18;14.20;;;8.02;;
84589;SDS011;75075;48.816;8.740;2024-01-11T03:18:18;10.45;;;7.07;;
84589;SDS011;75075;48.816;8.740;2024-01-11T03:23:19;12.15;;;7.82;;
84589;SDS011;75075;48.816;8.740;2024-01-11T03:28:19;12.15;;;7.75;;
84589;SDS011;75075;48.816;8.740;2024-01-11T03:33:19;11.68;;;7.93;;
84589;SDS011;75075;48.816;8.740;2024-01-11T03:38:19;11.60;;;7.50;;
84589;SDS011;75075;48.816;8.740;2024-01-11T03:43:20;11.13;;;7.05;;
84589;SDS011;75075;48.816;8.740;2024-01-11T03:48:20;12.30;;;8.07;;
84589;SDS011;75075;48.816;8.740;2024-01-11T03:53:21;12.18;;;8.15;;
84589;SDS011;75075;48.816;8.740;2024-01-11T03:58:21;10.80;;;7.45;;
84589;SDS011;75075;48.816;8.740;2024-01-11T04:03:22;12.75;;;8.13;;
84589;SDS011;75075;48.816;8.740;2024-01-11T04:08:22;13.88;;;8.35;;
84589;SDS011;75075;48.816;8.740;2024-01-11T04:13:22;14.55;;;8.00;;
84589;SDS011;75075;48.816;8.740;2024-01-11T04:18:22;12.48;;;8.32;;
84589;SDS011;75075;48.816;8.740;2024-01-11T04:23:23;13.02;;;8.35;;
84589;SDS011;75075;48.816;8.740;2024-01-11T04:28:23;12.53;;;8.07;;
84589;SDS011;75075;48.816;8.740;2024-01-11T04:33:23;13.00;;;8.43;;
84589;SDS011;75075;48.816;8.740;2024-01-11T04:38:24;12.68;;;8.02;;
84589;SDS011;75075;48.816;8.740;2024-01-11T04:43:24;14.07;;;8.73;;
84589;SDS011;75075;48.816;8.740;2024-01-11T04:48:24;12.10;;;8.05;;
84589;SDS011;75075;48.816;8.740;2024-01-11T04:53:24;13.05;;;8.45;;
84589;SDS011;75075;48.816;8.740;2024-01-11T04:58:25;13.50;;;8.40;;
84589;SDS011;75075;48.816;8.740;2024-01-11T05:03:25;14.27;;;8.68;;
84589;SDS011;75075;48.816;8.740;2024-01-11T05:08:26;12.80;;;8.77;;
84589;SDS011;75075;48.816;8.740;2024-01-11T05:13:27;14.82;;;9.07;;
84589;SDS011;75075;48.816;8.740;2024-01-11T05:18:27;13.70;;;8.88;;
84589;SDS011;75075;48.816;8.740;2024-01-11T05:23:28;16.30;;;9.02;;
84589;SDS011;75075;48.816;8.740;2024-01-11T05:28:28;14.05;;;9.05;;
84589;SDS011;75075;48.816;8.740;2024-01-11T05:33:28;14.07;;;8.93;;
84589;SDS011;75075;48.816;8.740;2024-01-11T05:38:29;18.73;;;11.43;;
84589;SDS011;75075;48.816;8.740;2024-01-11T05:43:30;17.93;;;10.40;;
84589;SDS011;75075;48.816;8.740;2024-01-11T05:48:30;21.48;;;12.95;;
84589;SDS011;75075;48.816;8.740;2024-01-11T05:53:30;21.75;;;13.40;;
84589;SDS011;75075;48.816;8.740;2024-01-11T05:58:35;20.02;;;12.10;;
84589;SDS011;75075;48.816;8.740;2024-01-11T06:03:37;18.58;;;11.60;;
84589;SDS011;75075;48.816;8.740;2024-01-11T06:08:39;18.05;;;11.15;;
84589;SDS011;75075;48.816;8.740;2024-01-11T06:13:40;17.25;;;11.18;;
84589;SDS011;75075;48.816;8.740;2024-01-11T06:18:41;17.23;;;11.02;;
84589;SDS011;75075;48.816;8.740;2024-01-11T06:23:41;17.00;;;10.30;;
84589;SDS011;75075;48.816;8.740;2024-01-11T06:28:41;16.30;;;10.65;;
84589;SDS011;75075;48.816;8.740;2024-01-11T06:33:41;16.60;;;10.70;;
84589;SDS011;75075;48.816;8.740;2024-01-11T06:38:42;16.55;;;9.88;;
84589;SDS011;75075;48.816;8.740;2024-01-11T06:43:43;17.00;;;10.30;;
84589;SDS011;75075;48.816;8.740;2024-01-11T06:48:43;14.73;;;9.55;;
84589;SDS011;75075;48.816;8.740;2024-01-11T06:53:43;14.43;;;9.63;;
84589;SDS011;75075;48.816;8.740;2024-01-11T06:58:44;14.25;;;9.27;;
84589;SDS011;75075;48.816;8.740;2024-01-11T07:03:44;14.55;;;9.02;;
84589;SDS011;75075;48.816;8.740;2024-01-11T07:08:45;14.73;;;9.18;;
84589;SDS011;75075;48.816;8.740;2024-01-11T07:13:45;12.70;;;8.20;;
84589;SDS011;75075;48.816;8.740;2024-01-11T07:18:45;14.83;;;9.33;;
84589;SDS011;75075;48.816;8.740;2024-01-11T07:23:46;15.13;;;8.85;;
84589;SDS011;75075;48.816;8.740;2024-01-11T07:28:46;14.55;;;9.13;;
84589;SDS011;75075;48.816;8.740;2024-01-11T07:33:48;15.30;;;9.48;;
84589;SDS011;75075;48.816;8.740;2024-01-11T07:38:48;14.95;;;9.88;;
84589;SDS011;75075;48.816;8.740;2024-01-11T07:43:49;15.38;;;9.27;;
84589;SDS011;75075;48.816;8.740;2024-01-11T07:48:49;14.85;;;9.45;;
84589;SDS011;75075;48.816;8.740;2024-01-11T07:53:49;13.38;;;8.32;;
84589;SDS011;75075;48.816;8.740;2024-01-11T07:58:49;14.00;;;8.65;;
84589;SDS011;75075;48.816;8.740;2024-01-11T08:03:50;12.27;;;7.43;;
84589;SDS011;75075;48.816;8.740;2024-01-11T08:08:52;13.55;;;8.50;;
84589;SDS011;75075;48.816;8.740;2024-01-11T08:13:52;13.17;;;7.73;;
84589;SDS011;75075;48.816;8.740;2024-01-11T08:18:54;11.65;;;8.20;;
84589;SDS011;75075;48.816;8.740;2024-01-11T08:23:55;12.07;;;7.03;;
84589;SDS011;75075;48.816;8.740;2024-01-11T08:28:55;13.57;;;8.05;;
84589;SDS011;75075;48.816;8.740;2024-01-11T08:33:55;11.15;;;7.32;;
84589;SDS011;75075;48.816;8.740;2024-01-11T08:38:56;12.70;;;7.95;;
84589;SDS011;75075;48.816;8.740;2024-01-11T08:43:56;13.13;;;8.02;;
84589;SDS011;75075;48.816;8.740;2024-01-11T08:48:56;13.68;;;7.97;;
84589;SDS011;75075;48.816;8.740;2024-01-11T08:53:57;10.60;;;6.32;;
84589;SDS011;75075;48.816;8.740;2024-01-11T08:58:57;11.00;;;6.83;;
84589;SDS011;75075;48.816;8.740;2024-01-11T09:03:58;11.63;;;6.78;;
84589;SDS011;75075;48.816;8.740;2024-01-11T09:08:59;11.15;;;6.97;;
84589;SDS011;75075;48.816;8.740;2024-01-11T09:13:59;11.00;;;7.63;;
84589;SDS011;75075;48.816;8.740;2024-01-11T09:18:59;10.65;;;6.95;;
84589;SDS011;75075;48.816;8.740;2024-01-11T09:24:00;12.07;;;7.00;;
84589;SDS011;75075;48.816;8.740;2024-01-11T09:29:00;9.57;;;6.43;;
84589;SDS011;75075;48.816;8.740;2024-01-11T09:34:00;10.02;;;6.82;;
84589;SDS011;75075;48.816;8.740;2024-01-11T09:39:01;11.95;;;6.80;;
84589;SDS011;75075;48.816;8.740;2024-01-11T09:44:01;10.13;;;6.60;;
84589;SDS011;75075;48.816;8.740;2024-01-11T09:49:04;10.80;;;6.43;;
84589;SDS011;75075;48.816;8.740;2024-01-11T09:54:05;9.27;;;6.28;;
84589;SDS011;75075;48.816;8.740;2024-01-11T09:59:07;11.88;;;7.38;;
84589;SDS011;75075;48.816;8.740;2024-01-11T10:04:09;10.13;;;6.50;;
84589;SDS011;75075;48.816;8.740;2024-01-11T10:09:12;10.88;;;6.80;;
84589;SDS011;75075;48.816;8.740;2024-01-11T10:14:13;12.05;;;6.88;;
84589;SDS011;75075;48.816;8.740;2024-01-11T10:19:13;10.57;;;6.83;;
84589;SDS011;75075;48.816;8.740;2024-01-11T10:24:19;10.20;;;6.80;;
84589;SDS011;75075;48.816;8.740;2024-01-11T10:29:31;14.15;;;7.45;;
84589;SDS011;75075;48.816;8.740;2024-01-11T10:34:32;9.93;;;6.90;;
84589;SDS011;75075;48.816;8.740;2024-01-11T10:39:33;10.55;;;7.22;;
84589;SDS011;75075;48.816;8.740;2024-01-11T10:44:35;11.30;;;7.55;;
84589;SDS011;75075;48.816;8.740;2024-01-11T10:49:40;11.07;;;7.00;;
84589;SDS011;75075;48.816;8.740;2024-01-11T10:54:42;10.65;;;7.30;;
84589;SDS011;75075;48.816;8.740;2024-01-11T10:59:43;11.75;;;7.68;;
84589;SDS011;75075;48.816;8.740;2024-01-11T11:04:45;11.80;;;7.40;;
84589;SDS011;75075;48.816;8.740;2024-01-11T11:09:46;11.60;;;7.85;;
84589;SDS011;75075;48.816;8.740;2024-01-11T11:14:49;11.77;;;7.85;;
84589;SDS011;75075;48.816;8.740;2024-01-11T11:19:50;12.15;;;7.90;;
84589;SDS011;75075;48.816;8.740;2024-01-11T11:25:02;11.82;;;7.50;;
84589;SDS011;75075;48.816;8.740;2024-01-11T11:30:05;11.15;;;7.55;;
84589;SDS011;75075;48.816;8.740;2024-01-11T11:35:06;12.80;;;8.07;;
84589;SDS011;75075;48.816;8.740;2024-01-11T11:40:09;9.80;;;6.53;;
84589;SDS011;75075;48.816;8.740;2024-01-11T11:45:13;23.52;;;9.52;;
84589;SDS011;75075;48.816;8.740;2024-01-11T11:50:25;19.33;;;8.90;;
84589;SDS011;75075;48.816;8.740;2024-01-11T11:55:26;20.92;;;9.63;;
84589;SDS011;75075;48.816;8.740;2024-01-11T12:00:26;18.63;;;7.80;;
84589;SDS011;75075;48.816;8.740;2024-01-11T12:05:30;22.02;;;9.05;;
84589;SDS011;75075;48.816;8.740;2024-01-11T12:10:30;15.77;;;8.18;;
84589;SDS011;75075;48.816;8.740;2024-01-11T12:15:30;18.77;;;8.27;;
84589;SDS011;75075;48.816;8.740;2024-01-11T12:20:31;14.68;;;7.43;;
84589;SDS011;75075;48.816;8.740;2024-01-11T12:25:31;17.45;;;7.57;;
84589;SDS011;75075;48.816;8.740;2024-01-11T12:30:31;15.73;;;7.57;;
84589;SDS011;75075;48.816;8.740;2024-01-11T12:35:32;22.35;;;10.48;;
84589;SDS011;75075;48.816;8.740;2024-01-11T12:40:33;19.38;;;8.35;;
84589;SDS011;75075;48.816;8.740;2024-01-11T12:45:40;25.02;;;8.98;;
84589;SDS011;75075;48.816;8.740;2024-01-11T12:50:41;24.67;;;9.25;;
84589;SDS011;75075;48.816;8.740;2024-01-11T12:55:42;27.50;;;9.27;;
84589;SDS011;75075;48.816;8.740;2024-01-11T13:00:43;27.45;;;9.50;;
84589;SDS011;75075;48.816;8.740;2024-01-11T13:05:43;21.98;;;8.40;;
84589;SDS011;75075;48.816;8.740;2024-01-11T13:10:43;22.90;;;8.57;;
84589;SDS011;75075;48.816;8.740;2024-01-11T13:15:44;20.92;;;8.75;;
84589;SDS011;75075;48.816;8.740;2024-01-11T13:20:44;22.13;;;9.02;;
84589;SDS011;75075;48.816;8.740;2024-01-11T13:25:46;18.55;;;7.40;;
84589;SDS011;75075;48.816;8.740;2024-01-11T13:30:47;19.15;;;7.75;;
84589;SDS011;75075;48.816;8.740;2024-01-11T13:35:48;17.42;;;7.82;;
84589;SDS011;75075;48.816;8.740;2024-01-11T13:40:49;19.40;;;7.55;;
84589;SDS011;75075;48.816;8.740;2024-01-11T13:45:49;14.37;;;7.30;;
84589;SDS011;75075;48.816;8.740;2024-01-11T13:50:50;15.60;;;7.67;;
84589;SDS011;75075;48.816;8.740;2024-01-11T13:55:50;16.23;;;7.45;;
84589;SDS011;75075;48.816;8.740;2024-01-11T14:00:51;13.77;;;7.55;;
84589;SDS011;75075;48.816;8.740;2024-01-11T14:05:51;16.27;;;7.80;;
84589;SDS011;75075;48.816;8.740;2024-01-11T14:10:51;16.37;;;7.60;;
84589;SDS011;75075;48.816;8.740;2024-01-11T14:15:53;14.88;;;7.57;;
84589;SDS011;75075;48.816;8.740;2024-01-11T14:20:53;13.52;;;7.10;;
84589;SDS011;75075;48.816;8.740;2024-01-11T14:30:55;13.68;;;7.43;;
84589;SDS011;75075;48.816;8.740;2024-01-11T14:35:55;12.23;;;7.32;;
84589;SDS011;75075;48.816;8.740;2024-01-11T14:45:56;13.93;;;7.93;;
84589;SDS011;75075;48.816;8.740;2024-01-11T14:50:57;13.25;;;7.63;;
84589;SDS011;75075;48.816;8.740;2024-01-11T14:55:57;11.30;;;7.30;;
84589;SDS011;75075;48.816;8.740;2024-01-11T15:00:57;13.88;;;7.45;;
84589;SDS011;75075;48.816;8.740;2024-01-11T15:05:58;13.57;;;7.60;;
84589;SDS011;75075;48.816;8.740;2024-01-11T15:10:58;12.57;;;7.32;;
84589;SDS011;75075;48.816;8.740;2024-01-11T15:15:58;14.82;;;8.23;;
84589;SDS011;75075;48.816;8.740;2024-01-11T15:20:59;13.65;;;8.20;;
84589;SDS011;75075;48.816;8.740;2024-01-11T15:25:59;13.98;;;8.00;;
84589;SDS011;75075;48.816;8.740;2024-01-11T15:35:59;13.35;;;8.13;;
84589;SDS011;75075;48.816;8.740;2024-01-11T15:46:00;12.75;;;7.78;;
84589;SDS011;75075;48.816;8.740;2024-01-11T15:51:00;14.38;;;8.60;;
84589;SDS011;75075;48.816;8.740;2024-01-11T15:56:00;12.88;;;8.40;;
84589;SDS011;75075;48.816;8.740;2024-01-11T16:01:00;12.88;;;8.00;;
84589;SDS011;75075;48.816;8.740;2024-01-11T16:11:01;14.68;;;8.93;;
84589;SDS011;75075;48.816;8.740;2024-01-11T16:16:01;15.57;;;9.35;;
84589;SDS011;75075;48.816;8.740;2024-01-11T16:21:02;13.40;;;8.60;;
84589;SDS011;75075;48.816;8.740;2024-01-11T16:26:03;12.43;;;7.82;;
84589;SDS011;75075;48.816;8.740;2024-01-11T16:31:06;11.65;;;7.28;;
84589;SDS011;75075;48.816;8.740;2024-01-11T16:36:06;11.65;;;7.35;;
84589;SDS011;75075;48.816;8.740;2024-01-11T16:41:08;12.23;;;8.07;;
84589;SDS011;75075;48.816;8.740;2024-01-11T16:46:10;12.43;;;7.13;;
84589;SDS011;75075;48.816;8.740;2024-01-11T16:51:17;13.43;;;7.43;;
84589;SDS011;75075;48.816;8.740;2024-01-11T16:56:17;12.88;;;7.38;;
84589;SDS011;75075;48.816;8.740;2024-01-11T17:01:17;11.00;;;6.90;;
84589;SDS011;75075;48.816;8.740;2024-01-11T17:06:17;10.98;;;7.13;;
84589;SDS011;75075;48.816;8.740;2024-01-11T17:11:19;12.38;;;7.22;;
84589;SDS011;75075;48.816;8.740;2024-01-11T17:16:19;10.50;;;7.05;;
84589;SDS011;75075;48.816;8.740;2024-01-11T17:21:20;12.73;;;7.50;;
84589;SDS011;75075;48.816;8.740;2024-01-11T17:26:20;12.05;;;7.22;;
84589;SDS011;75075;48.816;8.740;2024-01-11T17:31:20;11.23;;;6.85;;
84589;SDS011;75075;48.816;8.740;2024-01-11T17:36:20;15.80;;;9.07;;
84589;SDS011;75075;48.816;8.740;2024-01-11T17:41:21;13.93;;;8.77;;
84589;SDS011;75075;48.816;8.740;2024-01-11T17:46:21;14.43;;;9.13;;
84589;SDS011;75075;48.816;8.740;2024-01-11T17:51:23;13.82;;;8.88;;
84589;SDS011;75075;48.816;8.740;2024-01-11T17:56:24;14.40;;;9.43;;
84589;SDS011;75075;48.816;8.740;2024-01-11T18:01:24;13.40;;;8.65;;
84589;SDS011;75075;48.816;8.740;2024-01-11T18:06:26;16.40;;;9.07;;
84589;SDS011;75075;48.816;8.740;2024-01-11T18:11:26;15.55;;;9.40;;
84589;SDS011;75075;48.816;8.740;2024-01-11T18:16:26;14.20;;;9.63;;
84589;SDS011;75075;48.816;8.740;2024-01-11T18:21:26;15.82;;;9.35;;
84589;SDS011;75075;48.816;8.740;2024-01-11T18:26:28;15.57;;;9.25;;
84589;SDS011;75075;48.816;8.740;2024-01-11T18:31:28;15.32;;;9.70;;
84589;SDS011;75075;48.816;8.740;2024-01-11T18:36:29;18.05;;;10.13;;
84589;SDS011;75075;48.816;8.740;2024-01-11T18:41:29;16.07;;;10.47;;
84589;SDS011;75075;48.816;8.740;2024-01-11T18:46:30;18.27;;;11.50;;
84589;SDS011;75075;48.816;8.740;2024-01-11T18:51:30;17.48;;;10.13;;
84589;SDS011;75075;48.816;8.740;2024-01-11T18:56:30;17.58;;;10.10;;
84589;SDS011;75075;48.816;8.740;2024-01-11T19:01:31;16.40;;;10.30;;
84589;SDS011;75075;48.816;8.740;2024-01-11T19:06:31;14.48;;;9.68;;
84589;SDS011;75075;48.816;8.740;2024-01-11T19:11:31;16.70;;;10.27;;
84589;SDS011;75075;48.816;8.740;2024-01-11T19:16:32;14.80;;;9.70;;
84589;SDS011;75075;48.816;8.740;2024-01-11T19:21:32;15.87;;;10.03;;
84589;SDS011;75075;48.816;8.740;2024-01-11T19:26:32;17.65;;;9.75;;
84589;SDS011;75075;48.816;8.740;2024-01-11T19:31:33;13.38;;;8.75;;
84589;SDS011;75075;48.816;8.740;2024-01-11T19:36:39;13.82;;;8.90;;
84589;SDS011;75075;48.816;8.740;2024-01-11T19:41:41;14.35;;;9.13;;
84589;SDS011;75075;48.816;8.740;2024-01-11T19:46:41;15.90;;;9.00;;
84589;SDS011;75075;48.816;8.740;2024-01-11T19:51:43;13.82;;;8.75;;
84589;SDS011;75075;48.816;8.740;2024-01-11T19:56:44;12.88;;;8.30;;
84589;SDS011;75075;48.816;8.740;2024-01-11T20:01:44;13.07;;;8.65;;
84589;SDS011;75075;48.816;8.740;2024-01-11T20:06:44;12.88;;;8.10;;
84589;SDS011;75075;48.816;8.740;2024-01-11T20:11:45;12.00;;;8.18;;
84589;SDS011;75075;48.816;8.740;2024-01-11T20:16:45;12.68;;;8.35;;
84589;SDS011;75075;48.816;8.740;2024-01-11T20:21:47;13.45;;;8.25;;
84589;SDS011;75075;48.816;8.740;2024-01-11T20:26:47;11.93;;;7.90;;
84589;SDS011;75075;48.816;8.740;2024-01-11T20:31:47;12.85;;;8.32;;
84589;SDS011;75075;48.816;8.740;2024-01-11T20:36:47;11.07;;;7.63;;
84589;SDS011;75075;48.816;8.740;2024-01-11T20:41:48;12.23;;;7.85;;
84589;SDS011;75075;48.816;8.740;2024-01-11T20:46:48;12.38;;;8.00;;
84589;SDS011;75075;48.816;8.740;2024-01-11T20:51:48;12.35;;;7.63;;
84589;SDS011;75075;48.816;8.740;2024-01-11T20:56:49;10.90;;;7.13;;
84589;SDS011;75075;48.816;8.740;2024-01-11T21:01:49;10.48;;;7.32;;
84589;SDS011;75075;48.816;8.740;2024-01-11T21:06:49;10.23;;;7.07;;
84589;SDS011;75075;48.816;8.740;2024-01-11T21:11:49;10.98;;;7.40;;
84589;SDS011;75075;48.816;8.740;2024-01-11T21:16:50;11.70;;;7.55;;
84589;SDS011;75075;48.816;8.740;2024-01-11T21:21:50;11.57;;;6.93;;
84589;SDS011;75075;48.816;8.740;2024-01-11T21:26:50;11.43;;;7.30;;
84589;SDS011;75075;48.816;8.740;2024-01-11T21:31:50;10.40;;;6.57;;
84589;SDS011;75075;48.816;8.740;2024-01-11T21:36:51;9.73;;;6.65;;
84589;SDS011;75075;48.816;8.740;2024-01-11T21:41:51;10.82;;;6.95;;
84589;SDS011;75075;48.816;8.740;2024-01-11T21:46:51;11.38;;;7.07;;
84589;SDS011;75075;48.816;8.740;2024-01-11T21:51:52;11.95;;;7.38;;
84589;SDS011;75075;48.816;8.740;2024-01-11T21:56:52;10.55;;;6.57;;
84589;SDS011;75075;48.816;8.740;2024-01-11T22:01:54;10.82;;;7.35;;
84589;SDS011;75075;48.816;8.740;2024-01-11T22:06:54;10.83;;;6.97;;
84589;SDS011;75075;48.816;8.740;2024-01-11T22:11:55;10.80;;;6.27;;
84589;SDS011;75075;48.816;8.740;2024-01-11T22:16:55;11.57;;;7.18;;
84589;SDS011;75075;48.816;8.740;2024-01-11T22:21:55;10.43;;;6.23;;
84589;SDS011;75075;48.816;8.740;2024-01-11T22:26:56;9.73;;;6.45;;
84589;SDS011;75075;48.816;8.740;2024-01-11T22:31:56;10.48;;;6.50;;
84589;SDS011;75075;48.816;8.740;2024-01-11T22:36:56;9.10;;;6.03;;
84589;SDS011;75075;48.816;8.740;2024-01-11T22:41:56;10.75;;;6.50;;
84589;SDS011;75075;48.816;8.740;2024-01-11T22:46:57;10.38;;;6.22;;
84589;SDS011;75075;48.816;8.740;2024-01-11T22:51:57;9.65;;;6.25;;
84589;SDS011;75075;48.816;8.740;2024-01-11T22:56:58;10.70;;;6.50;;
84589;SDS011;75075;48.816;8.740;2024-01-11T23:01:58;9.88;;;6.68;;
84589;SDS011;75075;48.816;8.740;2024-01-11T23:06:58;9.68;;;6.28;;
84589;SDS011;75075;48.816;8.740;2024-01-11T23:11:59;8.85;;;6.07;;
84589;SDS011;75075;48.816;8.740;2024-01-11T23:16:59;10.55;;;7.22;;
84589;SDS011;75075;48.816;8.740;2024-01-11T23:21:59;10.13;;;6.28;;
84589;SDS011;75075;48.816;8.740;2024-01-11T23:27:00;11.60;;;6.50;;
84589;SDS011;75075;48.816;8.740;2024-01-11T23:32:00;9.10;;;6.10;;
84589;SDS011;75075;48.816;8.740;2024-01-11T23:37:00;9.65;;;6.32;;
84589;SDS011;75075;48.816;8.740;2024-01-11T23:42:01;10.20;;;6.25;;
84589;SDS011;75075;48.816;8.740;2024-01-11T23:47:01;9.83;;;6.00;;
84589;SDS011;75075;48.816;8.740;2024-01-11T23:52:01;10.82;;;6.38;;
84589;SDS011;75075;48.816;8.740;2024-01-11T23:57:02;8.07;;;5.43;;
